Vremea acum in Săcele - Romania

Vrei sa afli care e starea vremii acum in Brasov - Romania? Dorim sa iti furnizam starea vremii pentru Brasov - Romania. Starea vremii Brasov - Romania pentru astazi.

Vremea acum in Săcele

Temperatura: 4.4 °C

Este: Ceata
Se simte ca: 3.4 °C
Innorat: 59 %
Precipitatii: 0 %
Presiune atmosferica: 1020 hPa
Umiditate: 95%
Vizibilitate: 2 km
Vantul bate din NNW cu 5 km/h

Evolutia vremii in Săcele pe ore

Ora: 06:00
Ceata
Temperatura: 3.9°C
Sansa de precipitatii: 0%
Ora Descriere Temp Se simte Precipitatii Umiditate Vant
00:00Burniță ușoară4.1°100%73%WNW 5 KM/H
01:00Burniță ușoară3.1°1.5°100%88%WNW 6.1 KM/H
02:00Patchy rain nearby3.5°3.5°100%91%SSW 2.5 KM/H
03:00Patchy rain nearby4.2°3.8°100%93%WSW 3.6 KM/H
04:00Ploaie ușoară4.3°4.3°100%95%NNE 1.4 KM/H
05:00Ceata4.1°4.1°71%96%NNW 2.2 KM/H
06:00Ceata3.9°2.9°0%96%NNW 5 KM/H
07:00Ceata4.4°3.4°0%95%NNW 5 KM/H
08:005.8°5.6°0%90%NNW 3.6 KM/H
09:00Innorat7.4°6.3°0%84%NW 6.5 KM/H
10:00Innorat9.3°8.3°0%77%NW 7.6 KM/H
11:00Innorat11.2°10.4°0%69%NW 8.3 KM/H
12:00Patchy rain nearby12.7°11.9°65%64%NNW 9.7 KM/H
13:00Patchy rain nearby13.8°13.5°100%61%NNW 7.6 KM/H
14:00Patchy rain nearby14.4°14.2°100%59%NNW 7.9 KM/H
15:00Patchy rain nearby15.1°15.2°100%57%NNW 8.6 KM/H
16:00Patchy rain nearby15.4°15.5°100%56%NNW 9.7 KM/H
17:00Patchy light rain in area with thunder15.3°15.3°100%58%NW 10.4 KM/H
18:00Patchy rain nearby14.2°13.9°100%68%NW 8.3 KM/H
19:00Patchy rain nearby13.1°13.1°100%75%NW 5.8 KM/H
20:00Patchy rain nearby10.7°10.6°65%81%W 4.7 KM/H
21:00Senin8.6°8.6°0%87%WSW 4 KM/H
22:00Senin8.9°8.9°0%87%SW 4 KM/H
23:00Patchy rain nearby9.3°9.7°78%86%WSW 3.2 KM/H




tutorials